createdAt,value
2022-08-24T00:00:22.904Z,11.68
2022-08-24T00:01:25.255Z,11.55
2022-08-24T00:02:27.213Z,13.45
2022-08-24T00:03:34.149Z,11.93
2022-08-24T00:04:36.823Z,16.20
2022-08-24T00:05:38.412Z,15.68
2022-08-24T00:06:40.039Z,14.27
2022-08-24T00:07:41.869Z,16.10
2022-08-24T00:08:44.810Z,14.57
2022-08-24T00:09:49.983Z,16.35
2022-08-24T00:10:52.689Z,14.10
2022-08-24T00:11:54.388Z,17.33
2022-08-24T00:12:55.958Z,16.40
2022-08-24T00:13:57.668Z,20.20
2022-08-24T00:15:00.095Z,16.50
2022-08-24T00:16:02.716Z,24.38
2022-08-24T00:17:05.060Z,18.17
2022-08-24T00:18:07.195Z,20.85
2022-08-24T00:19:09.047Z,26.50
2022-08-24T00:20:12.393Z,19.77
2022-08-24T00:21:14.335Z,16.08
2022-08-24T00:22:16.100Z,16.50
2022-08-24T00:23:17.659Z,15.38
2022-08-24T00:24:20.042Z,15.63
2022-08-24T00:25:22.008Z,18.75
2022-08-24T00:26:29.063Z,18.90
2022-08-24T00:27:31.453Z,16.52
2022-08-24T00:28:33.157Z,17.15
2022-08-24T00:29:35.373Z,13.13
2022-08-24T00:30:37.105Z,14.55
2022-08-24T00:31:39.183Z,17.85
2022-08-24T00:32:41.908Z,14.95
2022-08-24T00:33:43.596Z,12.95
2022-08-24T00:34:58.114Z,14.73
2022-08-24T00:36:01.458Z,14.18
2022-08-24T00:37:04.027Z,16.58
2022-08-24T00:38:05.923Z,11.77
2022-08-24T00:39:08.763Z,13.50
2022-08-24T00:40:17.549Z,15.40
2022-08-24T00:41:19.269Z,13.13
2022-08-24T00:42:20.966Z,10.55
2022-08-24T00:43:25.633Z,13.82
2022-08-24T00:44:27.254Z,14.38
2022-08-24T00:45:29.686Z,26.17
2022-08-24T00:46:44.415Z,14.50
2022-08-24T00:47:56.888Z,16.83
2022-08-24T00:49:08.014Z,15.25
2022-08-24T00:50:14.319Z,15.10
2022-08-24T00:51:26.183Z,13.57
2022-08-24T00:52:33.404Z,15.20
2022-08-24T00:53:40.155Z,15.50
2022-08-24T00:54:53.276Z,15.35
2022-08-24T00:55:58.342Z,13.32
2022-08-24T00:57:04.397Z,15.43
2022-08-24T00:58:17.132Z,16.83
2022-08-24T00:59:37.078Z,12.23
2022-08-24T01:00:49.297Z,15.60
2022-08-24T01:01:52.361Z,18.80
2022-08-24T01:02:58.691Z,14.40
2022-08-24T01:04:01.469Z,12.25
2022-08-24T01:05:06.985Z,12.70
2022-08-24T01:06:09.661Z,16.08
2022-08-24T01:07:11.832Z,15.88
2022-08-24T01:09:32.585Z,13.35
2022-08-24T01:10:41.675Z,13.68
2022-08-24T01:11:43.399Z,12.90
2022-08-24T01:13:01.103Z,12.43
2022-08-24T01:14:04.282Z,16.00
2022-08-24T01:15:09.277Z,16.20
2022-08-24T01:16:13.427Z,19.38
2022-08-24T01:17:39.197Z,13.32
2022-08-24T01:18:51.378Z,14.38
2022-08-24T01:19:57.181Z,14.30
2022-08-24T01:21:22.461Z,13.77
2022-08-24T01:22:42.974Z,13.85
2022-08-24T01:23:56.104Z,12.70
2022-08-24T01:24:57.699Z,14.95
2022-08-24T01:26:00.487Z,13.45
2022-08-24T01:27:08.461Z,12.98
2022-08-24T01:28:16.673Z,11.18
2022-08-24T01:29:27.680Z,14.63
2022-08-24T01:30:30.494Z,9.57
2022-08-24T01:31:37.801Z,16.00
2022-08-24T01:32:40.762Z,13.52
2022-08-24T01:33:42.605Z,9.90
2022-08-24T01:34:44.352Z,11.82
2022-08-24T01:35:46.636Z,12.93
2022-08-24T01:36:51.803Z,11.93
2022-08-24T01:37:56.026Z,11.38
2022-08-24T01:39:02.281Z,10.75
2022-08-24T01:40:07.416Z,15.10
2022-08-24T01:41:09.104Z,20.70
2022-08-24T01:42:17.236Z,11.95
2022-08-24T01:43:18.868Z,11.75
2022-08-24T01:44:22.744Z,18.02
2022-08-24T01:45:24.332Z,10.65
2022-08-24T01:46:26.750Z,9.95
2022-08-24T01:47:29.170Z,12.25
2022-08-24T01:48:31.482Z,15.60
2022-08-24T01:49:36.970Z,10.40
2022-08-24T01:50:38.659Z,11.30
2022-08-24T01:51:42.491Z,13.02
2022-08-24T01:53:04.446Z,17.77
2022-08-24T01:54:07.680Z,12.35
2022-08-24T01:55:12.014Z,17.45
2022-08-24T01:56:13.675Z,10.75
2022-08-24T01:57:16.337Z,13.90
2022-08-24T01:58:18.876Z,11.30
2022-08-24T01:59:20.928Z,11.35
2022-08-24T02:00:22.790Z,11.68
2022-08-24T02:01:25.699Z,13.77
2022-08-24T02:02:31.137Z,13.35
2022-08-24T02:03:32.762Z,12.93
2022-08-24T02:04:36.327Z,13.02
2022-08-24T02:05:38.113Z,16.25
2022-08-24T02:06:39.810Z,11.35
2022-08-24T02:07:41.763Z,12.68
2022-08-24T02:08:43.355Z,13.32
2022-08-24T02:09:45.149Z,11.68
2022-08-24T02:10:50.950Z,19.63
2022-08-24T02:11:58.615Z,15.38
2022-08-24T02:13:00.440Z,12.35
2022-08-24T02:14:02.082Z,15.38
2022-08-24T02:15:06.310Z,13.38
2022-08-24T02:16:08.152Z,13.13
2022-08-24T02:17:10.307Z,12.82
2022-08-24T02:18:15.675Z,13.40
2022-08-24T02:19:17.451Z,14.23
2022-08-24T02:20:21.576Z,12.65
2022-08-24T02:21:24.175Z,14.43
2022-08-24T02:22:25.915Z,15.48
2022-08-24T02:23:28.816Z,14.05
2022-08-24T02:24:30.563Z,15.18
2022-08-24T02:25:32.779Z,14.30
2022-08-24T02:26:34.385Z,10.43
2022-08-24T02:27:36.006Z,13.05
2022-08-24T02:28:38.981Z,11.52
2022-08-24T02:29:40.583Z,11.48
2022-08-24T02:30:42.445Z,12.20
2022-08-24T02:31:44.108Z,14.50
2022-08-24T02:32:45.884Z,14.43
2022-08-24T02:33:47.540Z,15.63
2022-08-24T02:34:49.187Z,14.00
2022-08-24T02:35:54.407Z,15.30
2022-08-24T02:36:55.972Z,12.20
2022-08-24T02:37:58.625Z,13.00
2022-08-24T02:39:00.275Z,13.18
2022-08-24T02:40:02.244Z,12.93
2022-08-24T02:41:04.669Z,14.60
2022-08-24T02:42:06.559Z,16.97
2022-08-24T02:43:08.135Z,13.23
2022-08-24T02:44:09.705Z,14.03
2022-08-24T02:45:11.557Z,14.73
2022-08-24T02:46:21.207Z,15.43
2022-08-24T02:47:22.861Z,19.20
2022-08-24T02:48:40.052Z,14.60
2022-08-24T02:49:41.681Z,13.77
2022-08-24T02:50:46.455Z,22.27
2022-08-24T02:51:48.347Z,13.37
2022-08-24T02:52:50.307Z,15.32
2022-08-24T02:53:52.201Z,22.10
2022-08-24T02:54:53.764Z,15.93
2022-08-24T02:55:55.359Z,16.63
2022-08-24T02:56:56.945Z,16.03
2022-08-24T02:57:58.674Z,15.67
2022-08-24T02:59:01.352Z,16.17
2022-08-24T03:00:10.103Z,14.00
2022-08-24T03:01:14.364Z,14.37
2022-08-24T03:02:19.546Z,19.37
2022-08-24T03:03:21.131Z,16.10
2022-08-24T03:04:22.800Z,17.35
2022-08-24T03:05:25.998Z,16.63
2022-08-24T03:06:27.589Z,14.80
2022-08-24T03:07:29.193Z,15.38
2022-08-24T03:08:30.791Z,14.13
2022-08-24T03:09:36.282Z,15.40
2022-08-24T03:10:37.939Z,11.18
2022-08-24T03:11:40.414Z,13.60
2022-08-24T03:12:47.604Z,16.17
2022-08-24T03:13:49.306Z,13.05
2022-08-24T03:14:50.896Z,13.90
2022-08-24T03:15:52.631Z,14.20
2022-08-24T03:16:54.341Z,12.82
2022-08-24T03:17:56.323Z,12.32
2022-08-24T03:18:58.023Z,14.00
2022-08-24T03:20:00.798Z,15.93
2022-08-24T03:21:03.774Z,16.33
2022-08-24T03:22:05.541Z,19.05
2022-08-24T03:23:07.174Z,12.43
2022-08-24T03:24:09.460Z,14.10
2022-08-24T03:25:11.447Z,13.40
2022-08-24T03:26:13.701Z,12.45
2022-08-24T03:27:15.426Z,13.23
2022-08-24T03:28:17.344Z,14.20
2022-08-24T03:29:20.423Z,15.70
2022-08-24T03:30:25.738Z,14.85
2022-08-24T03:31:27.424Z,12.15
2022-08-24T03:32:29.029Z,13.18
2022-08-24T03:33:31.101Z,10.68
2022-08-24T03:34:32.695Z,13.80
2022-08-24T03:35:34.270Z,13.82
2022-08-24T03:36:35.831Z,13.88
2022-08-24T03:37:37.991Z,14.65
2022-08-24T03:38:39.672Z,15.35
2022-08-24T03:39:41.356Z,15.38
2022-08-24T03:40:43.136Z,14.18
2022-08-24T03:41:45.984Z,17.10
2022-08-24T03:42:47.584Z,16.50
2022-08-24T03:43:51.389Z,12.80
2022-08-24T03:44:53.034Z,16.15
2022-08-24T03:45:54.652Z,15.25
2022-08-24T03:46:56.514Z,12.50
2022-08-24T03:47:58.545Z,17.73
2022-08-24T03:49:00.171Z,11.13
2022-08-24T03:50:02.034Z,15.73
2022-08-24T03:51:03.851Z,16.63
2022-08-24T03:52:06.852Z,17.47
2022-08-24T03:53:08.424Z,18.43
2022-08-24T03:54:11.603Z,15.75
2022-08-24T03:55:13.833Z,13.57
2022-08-24T03:56:15.577Z,14.83
2022-08-24T03:57:17.159Z,15.88
2022-08-24T03:58:18.965Z,12.33
2022-08-24T03:59:20.736Z,14.25
2022-08-24T04:00:22.438Z,14.15
2022-08-24T04:01:24.673Z,13.02
2022-08-24T04:02:30.106Z,15.55
2022-08-24T04:03:40.356Z,13.13
2022-08-24T04:04:42.003Z,13.32
2022-08-24T04:05:45.863Z,14.05
2022-08-24T04:06:49.245Z,15.32
2022-08-24T04:07:50.861Z,16.55
2022-08-24T04:08:53.219Z,15.32
2022-08-24T04:09:54.816Z,11.77
2022-08-24T04:10:56.449Z,13.37
2022-08-24T04:11:58.125Z,18.58
2022-08-24T04:13:01.585Z,13.63
2022-08-24T04:14:04.221Z,16.70
2022-08-24T04:15:07.101Z,13.33
2022-08-24T04:16:12.862Z,17.48
2022-08-24T04:17:17.802Z,16.90
2022-08-24T04:18:19.932Z,16.50
2022-08-24T04:19:21.825Z,17.03
2022-08-24T04:20:24.170Z,15.40
2022-08-24T04:21:35.452Z,17.13
2022-08-24T04:22:37.325Z,14.25
2022-08-24T04:23:46.683Z,14.40
2022-08-24T04:24:49.584Z,18.35
2022-08-24T04:25:51.157Z,13.98
2022-08-24T04:26:52.818Z,14.20
2022-08-24T04:27:54.852Z,15.55
2022-08-24T04:28:57.747Z,13.73
2022-08-24T04:30:00.267Z,14.10
2022-08-24T04:31:05.515Z,16.45
2022-08-24T04:32:07.749Z,13.93
2022-08-24T04:33:13.846Z,18.02
2022-08-24T04:34:16.632Z,12.30
2022-08-24T04:35:18.305Z,13.85
2022-08-24T04:36:21.548Z,13.90
2022-08-24T04:37:29.113Z,16.58
2022-08-24T04:38:31.629Z,18.47
2022-08-24T04:39:33.721Z,13.93
2022-08-24T04:40:35.728Z,13.02
2022-08-24T04:41:38.121Z,18.50
2022-08-24T04:42:40.650Z,14.85
2022-08-24T04:43:45.166Z,16.58
2022-08-24T04:44:47.841Z,15.00
2022-08-24T04:45:51.417Z,14.50
2022-08-24T04:46:53.320Z,16.33
2022-08-24T04:47:55.161Z,16.63
2022-08-24T04:48:58.686Z,17.80
2022-08-24T04:50:00.343Z,12.88
2022-08-24T04:51:04.675Z,16.13
2022-08-24T04:52:08.296Z,17.02
2022-08-24T04:53:11.953Z,16.98
2022-08-24T04:54:13.657Z,15.13
2022-08-24T04:55:15.648Z,26.15
2022-08-24T04:56:24.876Z,16.77
2022-08-24T04:57:26.524Z,18.10
2022-08-24T04:58:30.146Z,21.13
2022-08-24T04:59:31.734Z,16.52
2022-08-24T05:00:33.583Z,15.00
2022-08-24T05:01:35.362Z,19.67
2022-08-24T05:02:44.724Z,21.48
2022-08-24T05:03:49.220Z,14.18
2022-08-24T05:04:50.824Z,17.02
2022-08-24T05:05:52.948Z,15.35
2022-08-24T05:06:54.594Z,15.13
2022-08-24T05:07:56.764Z,13.55
2022-08-24T05:09:00.391Z,14.65
2022-08-24T05:10:02.640Z,13.20
2022-08-24T05:11:08.639Z,14.02
2022-08-24T05:12:11.811Z,19.10
2022-08-24T05:13:14.787Z,17.38
2022-08-24T05:14:16.484Z,16.00
2022-08-24T05:15:18.241Z,16.95
2022-08-24T05:16:20.118Z,16.65
2022-08-24T05:17:21.735Z,13.70
2022-08-24T05:18:23.296Z,14.45
2022-08-24T05:19:25.102Z,18.17
2022-08-24T05:20:27.288Z,16.88
2022-08-24T05:21:30.877Z,14.80
2022-08-24T05:22:32.454Z,15.68
2022-08-24T05:23:35.242Z,14.15
2022-08-24T05:24:36.841Z,16.83
2022-08-24T05:25:39.558Z,17.13
2022-08-24T05:26:41.273Z,15.43
2022-08-24T05:27:43.918Z,17.40
2022-08-24T05:28:45.957Z,13.93
2022-08-24T05:29:47.605Z,16.25
2022-08-24T05:30:51.112Z,15.65
2022-08-24T05:31:53.522Z,16.15
2022-08-24T05:32:55.479Z,20.77
2022-08-24T05:33:58.647Z,18.13
2022-08-24T05:35:01.693Z,13.48
2022-08-24T05:36:04.776Z,16.17
2022-08-24T05:37:06.476Z,17.88
2022-08-24T05:38:09.297Z,17.45
2022-08-24T05:39:13.577Z,19.13
2022-08-24T05:40:18.716Z,23.70
2022-08-24T05:41:20.922Z,16.98
2022-08-24T05:42:22.542Z,21.50
2022-08-24T05:43:24.436Z,17.70
2022-08-24T05:44:30.762Z,16.63
2022-08-24T05:45:32.811Z,14.43
2022-08-24T05:46:34.926Z,16.05
2022-08-24T05:47:36.933Z,15.00
2022-08-24T05:48:38.943Z,22.08
2022-08-24T05:49:41.759Z,17.13
2022-08-24T05:50:43.495Z,23.35
2022-08-24T05:51:45.103Z,18.42
2022-08-24T05:52:46.704Z,20.27
2022-08-24T05:53:48.434Z,18.75
2022-08-24T05:54:56.548Z,16.67
2022-08-24T05:55:58.183Z,15.68
2022-08-24T05:57:04.743Z,20.60
2022-08-24T05:58:06.666Z,20.02
2022-08-24T05:59:08.246Z,21.00
2022-08-24T06:00:12.285Z,17.58
2022-08-24T06:01:18.048Z,16.98
2022-08-24T06:02:20.361Z,14.48
2022-08-24T06:03:22.028Z,22.95
2022-08-24T06:04:24.062Z,14.90
2022-08-24T06:05:27.964Z,14.43
2022-08-24T06:06:29.576Z,15.05
2022-08-24T06:07:31.162Z,13.38
2022-08-24T06:08:40.635Z,16.73
2022-08-24T06:09:43.178Z,15.20
2022-08-24T06:10:47.858Z,15.75
2022-08-24T06:11:49.515Z,12.73
2022-08-24T06:12:51.351Z,16.80
2022-08-24T06:13:56.301Z,14.77
2022-08-24T06:15:00.862Z,15.13
2022-08-24T06:16:47.926Z,16.85
2022-08-24T06:17:35.695Z,15.05
2022-08-24T06:18:38.727Z,18.45
2022-08-24T06:19:40.609Z,21.90
2022-08-24T06:20:42.879Z,15.75
2022-08-24T06:21:50.807Z,18.67
2022-08-24T06:22:52.398Z,19.83
2022-08-24T06:23:54.396Z,19.52
2022-08-24T06:25:14.543Z,18.45
2022-08-24T06:26:34.962Z,14.73
2022-08-24T06:27:36.943Z,20.10
2022-08-24T06:28:38.548Z,16.52
2022-08-24T06:29:40.103Z,20.30
2022-08-24T06:30:42.936Z,15.18
2022-08-24T06:31:47.078Z,18.95
2022-08-24T06:32:48.730Z,15.27
2022-08-24T06:33:52.162Z,13.88
2022-08-24T06:34:56.779Z,10.85
2022-08-24T06:35:58.774Z,18.85
2022-08-24T06:37:01.929Z,14.15
2022-08-24T06:38:04.529Z,13.93
2022-08-24T06:39:07.080Z,17.90
2022-08-24T06:40:11.555Z,15.80
2022-08-24T06:41:13.235Z,13.02
2022-08-24T06:42:14.801Z,10.98
2022-08-24T06:43:16.834Z,17.50
2022-08-24T06:44:18.854Z,19.45
2022-08-24T06:45:22.172Z,15.75
2022-08-24T06:46:26.484Z,14.75
2022-08-24T06:47:29.871Z,12.98
2022-08-24T06:48:31.940Z,20.20
2022-08-24T06:49:33.548Z,16.50
2022-08-24T06:50:35.578Z,20.85
2022-08-24T06:51:37.149Z,11.60
2022-08-24T06:52:39.647Z,13.35
2022-08-24T06:53:41.726Z,12.95
2022-08-24T06:54:43.329Z,14.13
2022-08-24T06:56:00.566Z,13.05
2022-08-24T06:57:02.495Z,13.48
2022-08-24T06:58:04.621Z,13.43
2022-08-24T06:59:06.613Z,11.07
2022-08-24T07:00:10.347Z,14.70
2022-08-24T07:01:17.560Z,11.75
2022-08-24T07:02:19.536Z,14.35
2022-08-24T07:03:21.265Z,12.02
2022-08-24T07:04:28.004Z,16.73
2022-08-24T07:05:30.227Z,16.88
2022-08-24T07:06:31.851Z,12.82
2022-08-24T07:07:33.481Z,12.02
2022-08-24T07:08:36.030Z,14.18
2022-08-24T07:09:37.979Z,13.20
2022-08-24T07:10:39.679Z,14.02
2022-08-24T07:11:41.861Z,8.98
2022-08-24T07:12:43.467Z,12.07
2022-08-24T07:13:49.609Z,20.90
2022-08-24T07:14:51.257Z,16.83
2022-08-24T07:15:53.648Z,15.32
2022-08-24T07:16:55.547Z,11.80
2022-08-24T07:17:57.646Z,11.80
2022-08-24T07:18:59.551Z,9.93
2022-08-24T07:20:01.899Z,11.60
2022-08-24T07:21:04.155Z,12.60
2022-08-24T07:22:05.777Z,14.48
2022-08-24T07:23:07.696Z,8.95
2022-08-24T07:24:10.680Z,11.55
2022-08-24T07:25:13.175Z,8.35
2022-08-24T07:26:22.757Z,8.75
2022-08-24T07:27:24.487Z,8.95
2022-08-24T07:28:27.692Z,9.70
2022-08-24T07:29:56.506Z,8.18
2022-08-24T07:30:55.140Z,9.00
2022-08-24T07:31:57.181Z,10.25
2022-08-24T07:32:59.208Z,7.65
2022-08-24T07:34:00.828Z,9.10
2022-08-24T07:35:02.548Z,8.77
2022-08-24T07:36:04.501Z,9.48
2022-08-24T07:37:07.907Z,12.48
2022-08-24T07:38:12.543Z,7.60
2022-08-24T07:39:14.394Z,8.32
2022-08-24T07:40:17.246Z,8.23
2022-08-24T07:41:40.306Z,9.27
2022-08-24T07:42:41.604Z,8.90
2022-08-24T07:43:43.256Z,9.27
2022-08-24T07:44:44.941Z,8.32
2022-08-24T07:45:48.021Z,12.43
2022-08-24T07:46:49.867Z,12.85
2022-08-24T07:49:11.560Z,8.52
2022-08-24T07:50:15.455Z,8.57
2022-08-24T07:51:19.431Z,7.63
2022-08-24T07:52:21.303Z,7.75
2022-08-24T07:53:27.918Z,7.40
2022-08-24T07:54:34.055Z,7.30
2022-08-24T07:55:35.941Z,9.90
2022-08-24T07:56:48.005Z,10.98
2022-08-24T07:57:49.732Z,7.47
2022-08-24T07:58:54.406Z,10.70
2022-08-24T07:59:58.291Z,7.78
2022-08-24T08:00:59.938Z,7.88
2022-08-24T08:02:02.191Z,8.80
2022-08-24T08:03:05.004Z,6.45
2022-08-24T08:04:06.831Z,7.13
2022-08-24T08:05:09.084Z,7.38
2022-08-24T08:06:16.072Z,7.60
2022-08-24T08:07:18.047Z,6.72
2022-08-24T08:08:20.281Z,6.18
2022-08-24T08:09:21.948Z,6.93
2022-08-24T08:10:23.745Z,5.75
2022-08-24T08:11:25.513Z,5.90
2022-08-24T08:12:27.149Z,5.80
2022-08-24T08:13:29.986Z,6.20
2022-08-24T08:14:31.550Z,9.07
2022-08-24T08:15:33.723Z,8.63
2022-08-24T08:16:35.510Z,6.68
2022-08-24T08:17:38.679Z,10.73
2022-08-24T08:18:40.333Z,7.32
2022-08-24T08:19:43.161Z,8.15
2022-08-24T08:20:45.240Z,6.75
2022-08-24T08:22:08.435Z,7.45
2022-08-24T08:23:29.132Z,31.67
2022-08-24T08:24:30.876Z,6.43
2022-08-24T08:25:32.676Z,7.15
2022-08-24T08:26:34.277Z,6.70
2022-08-24T08:27:36.325Z,5.65
2022-08-24T08:28:38.256Z,6.53
2022-08-24T08:29:40.649Z,7.43
2022-08-24T08:30:42.640Z,5.93
2022-08-24T08:31:44.576Z,6.28
2022-08-24T08:32:46.420Z,6.13
2022-08-24T08:33:48.043Z,8.07
2022-08-24T08:34:50.158Z,6.28
2022-08-24T08:35:56.299Z,5.75
2022-08-24T08:36:59.055Z,6.78
2022-08-24T08:38:01.061Z,7.68
2022-08-24T08:39:03.564Z,5.82
2022-08-24T08:40:17.823Z,6.00
2022-08-24T08:41:37.960Z,6.43
2022-08-24T08:43:04.839Z,8.05
2022-08-24T08:44:15.531Z,7.60
2022-08-24T08:45:59.410Z,5.35
2022-08-24T08:47:06.823Z,5.93
2022-08-24T08:48:43.586Z,6.15
2022-08-24T08:50:18.781Z,5.97
2022-08-24T08:52:10.593Z,6.30
2022-08-24T08:53:33.401Z,7.80
2022-08-24T08:55:00.226Z,8.38
2022-08-24T08:56:01.879Z,6.40
2022-08-24T08:57:24.982Z,6.45
2022-08-24T08:58:59.464Z,5.85
2022-08-24T09:00:25.169Z,6.60
2022-08-24T09:01:46.988Z,6.28
2022-08-24T09:03:07.440Z,5.93
2022-08-24T09:04:21.653Z,6.03
2022-08-24T09:05:59.570Z,7.78
2022-08-24T09:07:33.081Z,5.90
2022-08-24T09:08:59.066Z,5.25
2022-08-24T09:10:33.866Z,5.72
2022-08-24T09:11:56.393Z,7.70
2022-08-24T09:13:45.751Z,6.47
2022-08-24T09:15:02.740Z,7.30
2022-08-24T09:16:12.240Z,7.05
2022-08-24T09:17:32.814Z,8.52
2022-08-24T09:18:50.761Z,5.93
2022-08-24T09:20:12.649Z,5.20
2022-08-24T09:21:39.047Z,6.28
2022-08-24T09:22:50.031Z,6.13
2022-08-24T09:24:07.688Z,5.90
2022-08-24T09:25:24.756Z,7.45
2022-08-24T09:26:33.394Z,5.72
2022-08-24T09:28:00.922Z,5.72
2022-08-24T09:30:57.717Z,5.43
2022-08-24T09:32:13.057Z,7.70
2022-08-24T09:33:41.574Z,6.47
2022-08-24T09:34:52.617Z,7.22
2022-08-24T09:36:08.524Z,6.43
2022-08-24T09:37:24.605Z,6.40
2022-08-24T09:38:47.587Z,8.20
2022-08-24T09:40:34.561Z,6.00
2022-08-24T09:42:17.485Z,5.97
2022-08-24T09:43:24.992Z,6.18
2022-08-24T09:44:44.836Z,6.57
2022-08-24T09:46:10.507Z,5.82
2022-08-24T09:47:37.473Z,7.53
2022-08-24T09:48:49.357Z,6.00
2022-08-24T09:49:59.727Z,6.05
2022-08-24T09:51:01.641Z,6.28
2022-08-24T09:52:24.767Z,6.18
2022-08-24T09:54:00.273Z,6.90
2022-08-24T09:55:08.163Z,8.13
2022-08-24T09:56:36.800Z,8.25
2022-08-24T09:57:59.801Z,6.68
2022-08-24T09:59:08.019Z,6.18
2022-08-24T10:00:34.681Z,6.50
2022-08-24T10:01:45.811Z,5.85
2022-08-24T10:03:03.097Z,5.85
2022-08-24T10:04:27.965Z,12.43
2022-08-24T10:06:00.128Z,8.43
2022-08-24T10:07:32.665Z,8.48
2022-08-24T10:08:42.918Z,7.03
2022-08-24T10:10:07.782Z,6.55
2022-08-24T10:11:31.754Z,6.72
2022-08-24T10:12:55.989Z,6.03
2022-08-24T10:14:36.831Z,6.10
2022-08-24T10:15:47.924Z,6.47
2022-08-24T10:17:43.741Z,7.20
2022-08-24T10:19:05.514Z,8.43
2022-08-24T10:20:29.488Z,7.63
2022-08-24T10:21:58.509Z,5.88
2022-08-24T10:23:18.900Z,8.25
2022-08-24T10:24:20.459Z,5.57
2022-08-24T10:25:51.570Z,6.45
2022-08-24T10:27:06.524Z,6.22
2022-08-24T10:28:13.876Z,6.03
2022-08-24T10:30:00.877Z,6.15
2022-08-24T10:31:09.729Z,5.80
2022-08-24T10:32:32.393Z,6.95
2022-08-24T10:34:04.689Z,5.80
2022-08-24T10:35:52.412Z,8.23
2022-08-24T10:37:21.593Z,6.57
2022-08-24T10:38:52.988Z,6.03
2022-08-24T10:40:32.936Z,7.55
2022-08-24T10:41:48.730Z,6.45
2022-08-24T10:43:28.533Z,7.95
2022-08-24T10:44:40.798Z,5.63
2022-08-24T10:45:54.213Z,7.20
2022-08-24T10:47:08.046Z,7.15
2022-08-24T10:48:36.061Z,7.40
2022-08-24T10:49:37.659Z,6.65
2022-08-24T10:50:49.624Z,8.98
2022-08-24T10:52:18.853Z,7.70
2022-08-24T10:53:33.974Z,8.68
2022-08-24T10:54:37.080Z,6.55
2022-08-24T10:55:39.094Z,5.78
2022-08-24T10:57:09.205Z,7.40
2022-08-24T10:58:19.546Z,5.05
2022-08-24T10:59:31.858Z,5.45
2022-08-24T11:00:33.725Z,7.03
2022-08-24T11:01:38.423Z,5.63
2022-08-24T11:02:42.879Z,5.50
2022-08-24T11:04:07.419Z,5.18
2022-08-24T11:05:13.079Z,7.85
2022-08-24T11:06:16.852Z,6.43
2022-08-24T11:07:21.691Z,5.72
2022-08-24T11:08:26.113Z,5.70
2022-08-24T11:10:17.868Z,6.32
2022-08-24T11:11:46.951Z,6.65
2022-08-24T11:12:48.704Z,5.13
2022-08-24T11:13:59.165Z,6.32
2022-08-24T11:15:23.989Z,5.93
2022-08-24T11:16:31.009Z,5.75
2022-08-24T11:17:34.786Z,6.05
2022-08-24T11:18:49.496Z,5.50
2022-08-24T11:19:52.415Z,5.43
2022-08-24T11:20:55.839Z,5.47
2022-08-24T11:22:01.943Z,7.63
2022-08-24T11:23:07.995Z,5.82
2022-08-24T11:24:18.527Z,4.97
2022-08-24T11:25:26.547Z,5.93
2022-08-24T11:26:28.947Z,7.05
2022-08-24T11:27:50.492Z,8.32
2022-08-24T11:29:01.183Z,5.25
2022-08-24T11:30:11.995Z,4.78
2022-08-24T11:31:22.689Z,8.10
2022-08-24T11:32:30.124Z,5.47
2022-08-24T11:33:44.319Z,5.07
2022-08-24T11:34:46.902Z,6.10
2022-08-24T11:35:48.493Z,7.57
2022-08-24T11:36:50.067Z,4.82
2022-08-24T11:37:57.141Z,6.97
2022-08-24T11:39:23.745Z,5.57
2022-08-24T11:40:29.749Z,5.53
2022-08-24T11:41:39.039Z,7.05
2022-08-24T11:42:58.798Z,5.18
2022-08-24T11:44:16.375Z,9.23
2022-08-24T11:45:23.907Z,9.50
2022-08-24T11:46:37.585Z,6.60
2022-08-24T11:47:50.157Z,6.28
2022-08-24T11:49:25.435Z,8.85
2022-08-24T11:50:42.213Z,5.15
2022-08-24T11:52:12.046Z,4.95
2022-08-24T11:55:26.743Z,4.25
2022-08-24T11:56:41.274Z,9.57
2022-08-24T11:58:17.433Z,8.63
2022-08-24T11:59:38.717Z,5.53
2022-08-24T12:00:54.284Z,5.82
2022-08-24T12:02:00.702Z,5.72
2022-08-24T12:03:06.280Z,5.93
2022-08-24T12:04:17.010Z,7.18
2022-08-24T12:05:21.213Z,4.68
2022-08-24T12:06:32.535Z,5.22
2022-08-24T12:07:34.545Z,5.45
2022-08-24T12:08:45.892Z,8.88
2022-08-24T12:10:09.203Z,5.85
2022-08-24T12:11:29.619Z,5.32
2022-08-24T12:12:54.626Z,5.05
2022-08-24T12:14:33.532Z,5.50
2022-08-24T12:16:03.172Z,7.57
2022-08-24T12:17:12.926Z,6.60
2022-08-24T12:18:31.063Z,7.53
2022-08-24T12:19:42.017Z,8.02
2022-08-24T12:20:49.424Z,7.32
2022-08-24T12:21:55.788Z,5.80
2022-08-24T12:23:02.652Z,5.50
2022-08-24T12:24:08.913Z,6.68
2022-08-24T12:25:42.769Z,6.53
2022-08-24T12:26:49.845Z,5.35
2022-08-24T12:27:52.422Z,7.32
2022-08-24T12:29:01.431Z,8.32
2022-08-24T12:30:07.620Z,5.47
2022-08-24T12:31:31.170Z,6.63
2022-08-24T12:32:47.920Z,5.72
2022-08-24T12:33:54.227Z,5.72
2022-08-24T12:34:59.027Z,6.20
2022-08-24T12:36:07.517Z,7.20
2022-08-24T12:37:30.577Z,5.43
2022-08-24T12:38:38.239Z,6.55
2022-08-24T12:39:54.270Z,5.10
2022-08-24T12:41:02.357Z,5.72
2022-08-24T12:42:19.046Z,5.75
2022-08-24T12:43:30.895Z,7.22
2022-08-24T12:44:45.540Z,6.45
2022-08-24T12:45:47.734Z,6.43
2022-08-24T12:46:54.408Z,9.52
2022-08-24T12:48:22.204Z,5.05
2022-08-24T12:49:27.748Z,9.50
2022-08-24T12:51:16.318Z,8.95
2022-08-24T12:52:29.688Z,7.55
2022-08-24T12:53:34.232Z,5.40
2022-08-24T12:54:43.246Z,5.97
2022-08-24T12:55:53.780Z,5.90
2022-08-24T12:57:25.887Z,5.65
2022-08-24T12:58:53.757Z,5.45
2022-08-24T13:00:04.861Z,7.30
2022-08-24T13:01:07.666Z,8.55
2022-08-24T13:02:15.236Z,5.72
2022-08-24T13:03:33.272Z,6.53
2022-08-24T13:04:50.208Z,7.63
2022-08-24T13:05:57.870Z,7.82
2022-08-24T13:07:05.610Z,6.70
2022-08-24T13:08:41.275Z,4.63
2022-08-24T13:09:57.975Z,5.13
2022-08-24T13:11:06.099Z,8.25
2022-08-24T13:12:32.951Z,5.80
2022-08-24T13:13:45.389Z,5.00
2022-08-24T13:14:51.045Z,6.63
2022-08-24T13:15:59.410Z,6.03
2022-08-24T13:17:00.968Z,4.78
2022-08-24T13:18:09.268Z,6.90
2022-08-24T13:19:23.060Z,4.97
2022-08-24T13:20:27.545Z,6.28
2022-08-24T13:22:10.738Z,4.85
2022-08-24T13:23:12.959Z,7.57
2022-08-24T13:24:43.840Z,5.22
2022-08-24T13:25:48.103Z,7.32
2022-08-24T13:26:49.690Z,5.72
2022-08-24T13:28:04.713Z,6.68
2022-08-24T13:29:07.872Z,7.13
2022-08-24T13:30:28.055Z,5.38
2022-08-24T13:31:34.995Z,6.95
2022-08-24T13:33:04.321Z,5.57
2022-08-24T13:34:05.853Z,4.72
2022-08-24T13:35:35.005Z,5.82
2022-08-24T13:37:11.241Z,6.30
2022-08-24T13:38:34.706Z,4.93
2022-08-24T13:40:02.084Z,8.18
2022-08-24T13:41:15.661Z,4.90
2022-08-24T13:42:46.814Z,5.28
2022-08-24T13:43:51.452Z,5.47
2022-08-24T13:45:18.100Z,4.57
2022-08-24T13:46:40.683Z,5.10
2022-08-24T13:47:57.971Z,4.43
2022-08-24T13:49:24.908Z,7.93
2022-08-24T13:50:59.693Z,5.95
2022-08-24T13:52:29.715Z,9.30
2022-08-24T13:53:52.673Z,6.57
2022-08-24T13:55:04.341Z,12.45
2022-08-24T13:56:18.126Z,11.90
2022-08-24T13:57:36.682Z,6.35
2022-08-24T13:58:46.985Z,9.30
2022-08-24T13:59:57.636Z,8.13
2022-08-24T14:01:18.448Z,8.05
2022-08-24T14:02:45.377Z,6.93
2022-08-24T14:04:00.095Z,8.05
2022-08-24T14:05:23.399Z,7.03
2022-08-24T14:06:36.207Z,10.13
2022-08-24T14:08:13.200Z,6.60
2022-08-24T14:09:26.171Z,8.25
2022-08-24T14:10:59.912Z,10.45
2022-08-24T14:12:12.093Z,9.10
2022-08-24T14:13:35.338Z,8.38
2022-08-24T14:14:42.932Z,12.00
2022-08-24T14:16:16.878Z,8.77
2022-08-24T14:18:03.744Z,9.32
2022-08-24T14:19:25.756Z,8.88
2022-08-24T14:20:48.438Z,8.13
2022-08-24T14:22:11.593Z,10.43
2022-08-24T14:23:46.063Z,7.97
2022-08-24T14:24:56.112Z,7.78
2022-08-24T14:26:40.949Z,9.00
2022-08-24T14:27:46.348Z,8.65
2022-08-24T14:28:48.473Z,8.43
2022-08-24T14:29:50.408Z,8.13
2022-08-24T14:31:13.731Z,9.38
2022-08-24T14:32:24.495Z,8.10
2022-08-24T14:33:33.238Z,8.93
2022-08-24T14:35:04.417Z,8.60
2022-08-24T14:36:19.223Z,11.43
2022-08-24T14:37:30.555Z,11.18
2022-08-24T14:38:46.068Z,10.63
2022-08-24T14:40:08.939Z,8.45
2022-08-24T14:41:32.075Z,9.93
2022-08-24T14:42:37.847Z,11.32
2022-08-24T14:44:13.124Z,10.43
2022-08-24T14:45:33.441Z,12.75
2022-08-24T14:47:11.302Z,13.90
2022-08-24T14:48:32.533Z,11.57
2022-08-24T14:49:36.558Z,13.23
2022-08-24T14:50:48.780Z,14.95
2022-08-24T14:52:08.384Z,20.05
2022-08-24T14:53:20.974Z,13.50
2022-08-24T14:54:57.121Z,12.23
2022-08-24T14:56:26.197Z,14.13
2022-08-24T14:57:27.750Z,13.05
2022-08-24T14:59:07.683Z,10.25
2022-08-24T15:00:16.532Z,12.40
2022-08-24T15:01:57.900Z,10.82
2022-08-24T15:03:52.040Z,14.77
2022-08-24T15:05:05.885Z,12.15
2022-08-24T15:06:29.532Z,13.68
2022-08-24T15:07:36.543Z,15.45
2022-08-24T15:08:43.089Z,13.65
2022-08-24T15:09:45.800Z,11.25